createdAt,value
2022-11-27T00:01:19.426Z,90.00
2022-11-27T00:03:46.664Z,90.00
2022-11-27T00:06:19.633Z,89.90
2022-11-27T00:08:47.023Z,89.90
2022-11-27T00:11:16.746Z,89.80
2022-11-27T00:13:43.819Z,89.70
2022-11-27T00:16:10.810Z,89.80
2022-11-27T00:18:37.690Z,89.80
2022-11-27T00:21:10.513Z,89.70
2022-11-27T00:23:37.761Z,89.70
2022-11-27T00:26:06.394Z,89.70
2022-11-27T00:28:34.487Z,89.60
2022-11-27T00:31:04.323Z,89.50
2022-11-27T00:33:31.541Z,89.60
2022-11-27T00:36:03.011Z,89.60
2022-11-27T00:38:31.030Z,89.50
2022-11-27T00:41:23.889Z,89.60
2022-11-27T00:43:51.798Z,89.50
2022-11-27T00:46:25.388Z,89.50
2022-11-27T00:48:55.604Z,89.60
2022-11-27T00:51:23.605Z,89.50
2022-11-27T00:53:50.788Z,89.60
2022-11-27T00:56:26.627Z,89.50
2022-11-27T00:58:54.090Z,90.10
2022-11-27T01:01:26.419Z,89.40
2022-11-27T01:03:58.954Z,89.40
2022-11-27T01:06:27.013Z,89.40
2022-11-27T01:08:54.003Z,89.40
2022-11-27T01:11:25.623Z,89.40
2022-11-27T01:13:53.545Z,89.40
2022-11-27T01:16:22.648Z,89.40
2022-11-27T01:18:50.899Z,89.30
2022-11-27T01:21:20.245Z,89.40
2022-11-27T01:23:48.067Z,89.40
2022-11-27T01:26:15.837Z,89.30
2022-11-27T01:28:42.618Z,89.30
2022-11-27T01:31:14.166Z,89.30
2022-11-27T01:33:45.608Z,89.40
2022-11-27T01:36:15.173Z,89.40
2022-11-27T01:38:42.400Z,89.40
2022-11-27T01:41:13.237Z,89.40
2022-11-27T01:43:46.132Z,89.40
2022-11-27T01:46:43.368Z,89.40
2022-11-27T01:49:10.147Z,89.30
2022-11-27T01:51:50.287Z,89.30
2022-11-27T01:54:18.473Z,90.00
2022-11-27T01:56:48.554Z,89.20
2022-11-27T01:59:17.974Z,89.20
2022-11-27T02:01:45.820Z,89.10
2022-11-27T02:04:12.945Z,89.00
2022-11-27T02:06:39.813Z,89.10
2022-11-27T02:09:06.790Z,89.00
2022-11-27T02:11:51.193Z,89.10
2022-11-27T02:14:26.625Z,89.00
2022-11-27T02:17:02.897Z,89.00
2022-11-27T02:19:57.803Z,88.90
2022-11-27T02:23:21.666Z,89.00
2022-11-27T02:26:25.647Z,88.80
2022-11-27T02:29:02.564Z,88.90
2022-11-27T02:31:39.027Z,89.70
2022-11-27T02:34:35.437Z,88.90
2022-11-27T02:37:34.227Z,88.90
2022-11-27T02:40:17.645Z,88.80
2022-11-27T02:43:01.409Z,88.90
2022-11-27T02:45:46.573Z,89.00
2022-11-27T02:48:15.914Z,89.00
2022-11-27T02:50:45.272Z,89.00
2022-11-27T02:53:23.963Z,88.90
2022-11-27T02:55:52.911Z,89.00
2022-11-27T02:58:23.518Z,88.90
2022-11-27T03:00:50.872Z,88.90
2022-11-27T03:03:26.597Z,88.90
2022-11-27T03:05:56.952Z,88.90
2022-11-27T03:08:27.168Z,88.90
2022-11-27T03:11:04.721Z,88.80
2022-11-27T03:13:38.059Z,88.80
2022-11-27T03:16:20.715Z,88.80
2022-11-27T03:19:09.314Z,88.90
2022-11-27T03:21:59.937Z,88.80
2022-11-27T03:24:28.642Z,88.60
2022-11-27T03:26:57.894Z,88.70
2022-11-27T03:29:39.704Z,88.60
2022-11-27T03:32:07.537Z,88.60
2022-11-27T03:34:34.383Z,88.50
2022-11-27T03:37:03.763Z,88.60
2022-11-27T03:39:31.619Z,88.50
2022-11-27T03:42:22.679Z,88.50
2022-11-27T03:44:58.363Z,88.50
2022-11-27T03:48:02.651Z,88.40
2022-11-27T03:50:41.413Z,88.40
2022-11-27T03:53:25.365Z,88.30
2022-11-27T03:56:13.309Z,88.40
2022-11-27T03:59:16.632Z,88.20
2022-11-27T04:01:43.444Z,88.20
2022-11-27T04:04:10.405Z,88.20
2022-11-27T04:06:37.200Z,88.10
2022-11-27T04:09:04.277Z,88.10
2022-11-27T04:11:31.028Z,88.10
2022-11-27T04:13:57.759Z,87.90
2022-11-27T04:16:24.506Z,88.00
2022-11-27T04:18:51.351Z,87.90
2022-11-27T04:21:18.149Z,87.70
2022-11-27T04:23:44.976Z,87.70
2022-11-27T04:26:11.795Z,87.70
2022-11-27T04:28:38.496Z,87.60
2022-11-27T04:31:05.416Z,87.60
2022-11-27T04:33:33.597Z,87.60
2022-11-27T04:36:05.430Z,87.50
2022-11-27T04:38:34.844Z,87.40
2022-11-27T04:41:03.004Z,87.30
2022-11-27T04:43:29.725Z,87.20
2022-11-27T04:45:56.491Z,87.20
2022-11-27T04:48:23.166Z,87.20
2022-11-27T04:50:49.802Z,87.10
2022-11-27T04:53:16.509Z,87.10
2022-11-27T04:55:43.150Z,87.10
2022-11-27T04:58:09.816Z,87.00
2022-11-27T05:00:36.574Z,86.90
2022-11-27T05:03:04.528Z,86.90
2022-11-27T05:05:34.277Z,87.00
2022-11-27T05:08:01.076Z,87.00
2022-11-27T05:10:27.775Z,86.80
2022-11-27T05:12:55.246Z,86.70
2022-11-27T05:15:22.014Z,86.70
2022-11-27T05:17:48.674Z,86.60
2022-11-27T05:20:15.456Z,86.70
2022-11-27T05:22:42.141Z,86.70
2022-11-27T05:25:09.360Z,86.80
2022-11-27T05:27:36.072Z,86.70
2022-11-27T05:30:02.888Z,86.70
2022-11-27T05:32:29.609Z,86.70
2022-11-27T05:34:56.315Z,86.50
2022-11-27T05:37:23.051Z,86.50
2022-11-27T05:39:49.722Z,86.50
2022-11-27T05:42:16.477Z,86.50
2022-11-27T05:44:43.367Z,87.20
2022-11-27T05:47:10.272Z,86.50
2022-11-27T05:49:37.404Z,86.50
2022-11-27T05:52:04.208Z,86.60
2022-11-27T05:54:30.976Z,86.60
2022-11-27T05:56:57.660Z,86.80
2022-11-27T05:59:24.327Z,86.80
2022-11-27T06:01:51.097Z,86.90
2022-11-27T06:04:18.493Z,87.00
2022-11-27T06:06:45.181Z,87.10
2022-11-27T06:09:13.416Z,87.00
2022-11-27T06:11:41.625Z,87.10
2022-11-27T06:14:11.473Z,87.20
2022-11-27T06:16:38.586Z,87.20
2022-11-27T06:19:05.337Z,87.30
2022-11-27T06:21:32.076Z,87.30
2022-11-27T06:23:58.998Z,87.40
2022-11-27T06:26:28.318Z,87.40
2022-11-27T06:28:56.170Z,87.50
2022-11-27T06:31:31.290Z,88.40
2022-11-27T06:33:59.452Z,87.50
2022-11-27T06:36:34.722Z,87.50
2022-11-27T06:39:02.803Z,87.60
2022-11-27T06:41:29.652Z,87.50
2022-11-27T06:43:59.348Z,87.70
2022-11-27T06:46:26.747Z,87.70
2022-11-27T06:48:54.482Z,87.70
2022-11-27T06:51:24.362Z,87.50
2022-11-27T06:53:52.298Z,87.70
2022-11-27T06:56:21.904Z,87.80
2022-11-27T06:58:52.343Z,87.90
2022-11-27T07:01:19.568Z,87.90
2022-11-27T07:03:46.247Z,88.00
2022-11-27T07:06:15.816Z,88.20
2022-11-27T07:08:42.689Z,88.20
2022-11-27T07:11:18.819Z,88.20
2022-11-27T07:13:46.954Z,88.30
2022-11-27T07:16:14.318Z,88.40
2022-11-27T07:18:47.258Z,88.60
2022-11-27T07:21:14.586Z,88.60
2022-11-27T07:23:41.669Z,88.70
2022-11-27T07:26:13.123Z,88.80
2022-11-27T07:28:40.107Z,88.80
2022-11-27T07:31:06.801Z,88.80
2022-11-27T07:33:33.689Z,88.90
2022-11-27T07:36:05.863Z,88.90
2022-11-27T07:38:35.564Z,88.90
2022-11-27T07:41:03.830Z,89.10
2022-11-27T07:43:32.247Z,89.10
2022-11-27T07:45:59.456Z,89.20
2022-11-27T07:48:26.228Z,89.30
2022-11-27T07:50:52.965Z,89.30
2022-11-27T07:53:19.723Z,89.40
2022-11-27T07:55:46.455Z,89.50
2022-11-27T07:58:13.286Z,89.50
2022-11-27T08:00:40.091Z,89.60
2022-11-27T08:03:06.900Z,89.70
2022-11-27T08:05:35.597Z,89.70
2022-11-27T08:08:04.376Z,89.80
2022-11-27T08:10:34.481Z,90.00
2022-11-27T08:13:01.173Z,90.00
2022-11-27T08:15:27.983Z,90.00
2022-11-27T08:17:54.736Z,90.00
2022-11-27T08:20:21.650Z,90.10
2022-11-27T08:22:48.737Z,90.10
2022-11-27T08:25:15.839Z,90.10
2022-11-27T08:27:42.728Z,90.10
2022-11-27T08:30:10.684Z,90.10
2022-11-27T08:32:42.209Z,90.20
2022-11-27T08:35:10.301Z,90.20
2022-11-27T08:37:37.462Z,90.20
2022-11-27T08:40:05.093Z,90.20
2022-11-27T08:42:31.867Z,90.30
2022-11-27T08:44:58.566Z,90.30
2022-11-27T08:47:25.313Z,90.40
2022-11-27T08:49:52.724Z,90.40
2022-11-27T08:52:20.621Z,90.40
2022-11-27T08:54:47.439Z,90.40
2022-11-27T08:57:14.264Z,90.40
2022-11-27T08:59:40.919Z,90.50
2022-11-27T09:02:13.737Z,90.50
2022-11-27T09:04:40.715Z,90.50
2022-11-27T09:07:07.582Z,90.50
2022-11-27T09:09:34.274Z,90.50
2022-11-27T09:12:01.055Z,90.50
2022-11-27T09:14:27.714Z,90.50
2022-11-27T09:16:54.901Z,90.50
2022-11-27T09:19:21.708Z,90.50
2022-11-27T09:21:50.929Z,90.60
2022-11-27T09:24:17.681Z,90.60
2022-11-27T09:26:44.879Z,90.50
2022-11-27T09:29:11.569Z,90.50
2022-11-27T09:31:38.430Z,90.60
2022-11-27T09:34:05.780Z,90.60
2022-11-27T09:36:36.046Z,90.60
2022-11-27T09:39:03.806Z,90.60
2022-11-27T09:41:39.775Z,90.60
2022-11-27T09:44:26.879Z,90.60
2022-11-27T09:46:54.506Z,90.60
2022-11-27T09:49:41.265Z,90.60
2022-11-27T09:52:14.970Z,90.60
2022-11-27T09:54:52.635Z,90.60
2022-11-27T09:57:24.370Z,91.00
2022-11-27T09:59:53.561Z,90.70
2022-11-27T10:02:35.045Z,90.70
2022-11-27T10:05:15.485Z,90.70
2022-11-27T10:08:13.414Z,90.70
2022-11-27T10:11:03.071Z,90.70
2022-11-27T10:13:51.532Z,90.80
2022-11-27T10:19:46.570Z,90.70
2022-11-27T10:22:30.124Z,90.80
2022-11-27T10:25:19.100Z,90.70
2022-11-27T10:27:52.517Z,90.80
2022-11-27T10:30:21.203Z,90.70
2022-11-27T10:32:56.195Z,90.70
2022-11-27T10:35:29.341Z,90.80
2022-11-27T10:38:11.423Z,90.80
2022-11-27T10:40:52.254Z,90.80
2022-11-27T10:43:22.196Z,90.80
2022-11-27T10:45:51.136Z,90.80
2022-11-27T10:48:18.665Z,90.90
2022-11-27T10:50:46.367Z,90.90
2022-11-27T10:53:25.349Z,90.90
2022-11-27T10:56:03.920Z,90.90
2022-11-27T10:58:55.273Z,90.90
2022-11-27T11:01:24.253Z,90.90
2022-11-27T11:03:51.625Z,90.80
2022-11-27T11:06:26.941Z,90.70
2022-11-27T11:09:13.483Z,90.70
2022-11-27T11:11:40.700Z,90.70
2022-11-27T11:14:27.037Z,90.70
2022-11-27T11:16:55.107Z,90.70
2022-11-27T11:19:22.998Z,90.70
2022-11-27T11:21:50.079Z,90.70
2022-11-27T11:24:46.715Z,90.70
2022-11-27T11:27:29.258Z,90.60
2022-11-27T11:29:59.189Z,90.60
2022-11-27T11:32:29.547Z,90.60
2022-11-27T11:35:09.101Z,90.90
2022-11-27T11:37:41.859Z,90.50
2022-11-27T11:40:22.326Z,90.60
2022-11-27T11:42:58.274Z,90.60
2022-11-27T11:45:31.214Z,90.60
2022-11-27T11:48:19.486Z,90.60
2022-11-27T11:51:06.725Z,90.50
2022-11-27T11:53:37.441Z,90.50
2022-11-27T11:56:16.151Z,90.40
2022-11-27T11:59:12.357Z,90.40
2022-11-27T12:01:39.083Z,90.30
2022-11-27T12:04:43.153Z,90.20
2022-11-27T12:07:37.662Z,90.20
2022-11-27T12:10:10.190Z,90.10
2022-11-27T12:12:51.487Z,90.10
2022-11-27T12:15:33.367Z,90.10
2022-11-27T12:18:17.997Z,90.00
2022-11-27T12:20:45.658Z,90.00
2022-11-27T12:23:28.481Z,89.80
2022-11-27T12:26:00.909Z,89.80
2022-11-27T12:28:27.538Z,89.70
2022-11-27T12:31:02.959Z,89.70
2022-11-27T12:33:58.126Z,89.50
2022-11-27T12:36:45.671Z,89.60
2022-11-27T12:39:36.893Z,89.50
2022-11-27T12:42:30.490Z,89.10
2022-11-27T12:45:15.284Z,88.90
2022-11-27T12:47:54.765Z,88.80
2022-11-27T12:50:44.374Z,89.70
2022-11-27T12:53:38.024Z,88.90
2022-11-27T12:56:16.875Z,88.90
2022-11-27T12:58:48.243Z,88.80
2022-11-27T13:01:26.813Z,88.50
2022-11-27T13:04:24.424Z,88.60
2022-11-27T13:07:06.587Z,88.50
2022-11-27T13:10:05.683Z,88.50
2022-11-27T13:12:43.020Z,88.50
2022-11-27T13:15:27.915Z,88.50
2022-11-27T13:18:02.943Z,88.50
2022-11-27T13:20:39.844Z,88.50
2022-11-27T13:23:06.608Z,88.30
2022-11-27T13:25:39.840Z,88.20
2022-11-27T13:28:08.425Z,88.10
2022-11-27T13:30:37.526Z,88.30
2022-11-27T13:33:07.114Z,88.30
2022-11-27T13:35:43.254Z,88.30
2022-11-27T13:38:21.365Z,88.50
2022-11-27T13:40:52.052Z,88.30
2022-11-27T13:43:31.165Z,88.30
2022-11-27T13:46:22.208Z,88.40
2022-11-27T13:48:54.330Z,88.30
2022-11-27T13:51:36.562Z,88.30
2022-11-27T13:54:13.141Z,88.30
2022-11-27T13:56:40.586Z,88.30
2022-11-27T13:59:25.490Z,88.20
2022-11-27T14:02:06.546Z,88.30
2022-11-27T14:04:35.078Z,88.40
2022-11-27T14:07:09.686Z,88.50
2022-11-27T14:09:55.570Z,88.50
2022-11-27T14:12:33.276Z,88.60
2022-11-27T14:15:10.189Z,88.60
2022-11-27T14:17:45.896Z,88.70
2022-11-27T14:20:20.662Z,88.70
2022-11-27T14:23:14.124Z,88.80
2022-11-27T14:25:41.612Z,88.90
2022-11-27T14:28:22.288Z,88.80
2022-11-27T14:30:52.821Z,88.90
2022-11-27T14:33:28.209Z,89.00
2022-11-27T14:36:00.001Z,89.00
2022-11-27T14:38:28.791Z,89.30
2022-11-27T14:41:25.993Z,89.20
2022-11-27T14:44:23.007Z,89.40
2022-11-27T14:46:50.984Z,89.50
2022-11-27T14:49:20.892Z,89.40
2022-11-27T14:51:48.712Z,89.50
2022-11-27T14:54:29.163Z,89.30
2022-11-27T14:56:56.020Z,89.40
2022-11-27T14:59:23.929Z,89.20
2022-11-27T15:02:03.252Z,89.40
2022-11-27T15:04:37.868Z,89.50
2022-11-27T15:07:12.995Z,89.50
2022-11-27T15:09:46.398Z,89.50
2022-11-27T15:12:29.708Z,89.50
2022-11-27T15:15:00.142Z,89.60
2022-11-27T15:17:32.170Z,89.50
2022-11-27T15:20:00.306Z,89.30
2022-11-27T15:22:27.182Z,89.30
2022-11-27T15:25:02.210Z,89.30
2022-11-27T15:27:32.840Z,89.30
2022-11-27T15:30:09.093Z,89.40
2022-11-27T15:32:54.635Z,90.10
2022-11-27T15:35:27.376Z,89.40
2022-11-27T15:37:58.118Z,89.50
2022-11-27T15:40:30.361Z,89.50
2022-11-27T15:42:57.326Z,89.50
2022-11-27T15:45:28.020Z,89.40
2022-11-27T15:48:00.388Z,89.50
2022-11-27T15:50:28.209Z,89.50
2022-11-27T15:52:54.982Z,89.60
2022-11-27T15:55:22.167Z,89.60
2022-11-27T15:57:48.924Z,89.50
2022-11-27T16:00:16.074Z,89.40
2022-11-27T16:02:42.848Z,89.40
2022-11-27T16:05:09.805Z,89.30
2022-11-27T16:07:36.681Z,89.30
2022-11-27T16:10:03.826Z,89.40
2022-11-27T16:12:30.581Z,89.30
2022-11-27T16:14:57.334Z,89.40
2022-11-27T16:17:24.054Z,89.20
2022-11-27T16:19:50.767Z,89.20
2022-11-27T16:22:17.436Z,89.20
2022-11-27T16:24:44.333Z,88.90
2022-11-27T16:27:11.273Z,88.90
2022-11-27T16:29:37.944Z,88.90
2022-11-27T16:32:05.932Z,88.80
2022-11-27T16:34:32.931Z,88.80
2022-11-27T16:36:59.598Z,88.60
2022-11-27T16:39:26.313Z,88.70
2022-11-27T16:41:53.052Z,88.60
2022-11-27T16:44:20.010Z,89.30
2022-11-27T16:46:46.747Z,88.50
2022-11-27T16:49:13.629Z,88.50
2022-11-27T16:51:40.921Z,88.30
2022-11-27T16:54:10.731Z,88.30
2022-11-27T16:56:38.605Z,88.30
2022-11-27T16:59:15.709Z,88.30
2022-11-27T17:01:43.114Z,88.20
2022-11-27T17:04:16.259Z,88.30
2022-11-27T17:06:43.025Z,88.30
2022-11-27T17:09:09.782Z,88.30
2022-11-27T17:11:38.085Z,88.30
2022-11-27T17:14:08.077Z,88.30
2022-11-27T17:16:35.803Z,88.40
2022-11-27T17:19:02.608Z,88.50
2022-11-27T17:21:36.167Z,88.60
2022-11-27T17:24:10.110Z,88.50
2022-11-27T17:26:43.943Z,88.50
2022-11-27T17:29:12.684Z,88.50
2022-11-27T17:31:39.840Z,88.40
2022-11-27T17:34:07.521Z,88.50
2022-11-27T17:36:37.052Z,88.60
2022-11-27T17:39:05.932Z,88.50
2022-11-27T17:41:33.227Z,88.60
2022-11-27T17:44:00.456Z,88.70
2022-11-27T17:46:28.964Z,88.60
2022-11-27T17:48:59.112Z,88.70
2022-11-27T17:51:26.633Z,88.80
2022-11-27T17:53:53.368Z,88.90
2022-11-27T17:56:21.079Z,88.90
2022-11-27T17:58:48.176Z,89.00
2022-11-27T18:01:22.957Z,89.10
2022-11-27T18:03:50.801Z,89.10
2022-11-27T18:06:19.140Z,89.20
2022-11-27T18:08:47.435Z,89.30
2022-11-27T18:11:17.258Z,89.40
2022-11-27T18:13:44.432Z,89.40
2022-11-27T18:16:17.764Z,89.60
2022-11-27T18:18:46.142Z,89.80
2022-11-27T18:21:18.805Z,89.80
2022-11-27T18:24:20.915Z,90.00
2022-11-27T18:27:00.434Z,90.00
2022-11-27T18:29:22.323Z,90.00
2022-11-27T18:31:50.843Z,90.10
2022-11-27T18:34:17.783Z,90.10
2022-11-27T18:36:45.781Z,90.10
2022-11-27T18:39:12.854Z,90.20
2022-11-27T18:41:39.693Z,90.30
2022-11-27T18:44:06.497Z,90.30
2022-11-27T18:46:33.662Z,90.30
2022-11-27T18:49:00.639Z,90.30
2022-11-27T18:51:27.396Z,90.40
2022-11-27T18:53:54.640Z,90.40
2022-11-27T18:56:26.797Z,90.40
2022-11-27T18:58:54.170Z,90.40
2022-11-27T19:01:24.797Z,90.50
2022-11-27T19:03:52.364Z,90.50
2022-11-27T19:06:21.247Z,90.60
2022-11-27T19:08:48.413Z,90.60
2022-11-27T19:11:20.503Z,90.60
2022-11-27T19:13:48.214Z,90.60
2022-11-27T19:16:28.940Z,90.70
2022-11-27T19:19:00.133Z,90.70
2022-11-27T19:21:29.445Z,90.80
2022-11-27T19:23:58.458Z,90.80
2022-11-27T19:26:28.434Z,90.80
2022-11-27T19:28:57.728Z,90.80
2022-11-27T19:31:25.373Z,90.80
2022-11-27T19:33:54.104Z,90.90
2022-11-27T19:36:22.424Z,90.90
2022-11-27T19:38:54.732Z,90.90
2022-11-27T19:41:21.533Z,90.90
2022-11-27T19:43:48.331Z,91.00
2022-11-27T19:46:19.501Z,91.00
2022-11-27T19:48:46.738Z,91.00
2022-11-27T19:51:14.023Z,91.00
2022-11-27T19:53:41.579Z,91.00
2022-11-27T19:56:09.938Z,91.10
2022-11-27T19:58:37.250Z,91.10
2022-11-27T20:01:09.865Z,91.10
2022-11-27T20:03:37.075Z,91.10
2022-11-27T20:06:07.825Z,91.20
2022-11-27T20:08:35.185Z,91.20
2022-11-27T20:11:04.296Z,91.20
2022-11-27T20:13:30.970Z,91.20
2022-11-27T20:15:57.689Z,91.20
2022-11-27T20:18:24.527Z,91.20
2022-11-27T20:20:51.289Z,91.30
2022-11-27T20:23:18.374Z,91.30
2022-11-27T20:25:49.280Z,91.30
2022-11-27T20:28:15.980Z,91.30
2022-11-27T20:30:44.521Z,91.30
2022-11-27T20:33:13.083Z,91.30
2022-11-27T20:35:42.529Z,91.30
2022-11-27T20:38:09.192Z,91.40
2022-11-27T20:40:38.582Z,91.40
2022-11-27T20:43:05.231Z,91.40
2022-11-27T20:45:32.047Z,91.50
2022-11-27T20:47:58.754Z,91.50
2022-11-27T20:50:25.528Z,91.40
2022-11-27T20:52:52.311Z,91.40
2022-11-27T20:55:19.143Z,91.50
2022-11-27T20:57:45.892Z,91.40
2022-11-27T21:00:13.045Z,91.50
2022-11-27T21:02:42.973Z,91.50
2022-11-27T21:05:10.198Z,91.50
2022-11-27T21:07:41.988Z,91.50
2022-11-27T21:10:11.436Z,91.50
2022-11-27T21:12:38.577Z,91.50
2022-11-27T21:15:06.341Z,91.50
2022-11-27T21:17:36.098Z,91.50
2022-11-27T21:20:07.785Z,91.50
2022-11-27T21:22:35.718Z,91.50
2022-11-27T21:25:03.105Z,91.50
2022-11-27T21:27:29.894Z,91.50
2022-11-27T21:29:56.587Z,91.50
2022-11-27T21:32:23.459Z,91.50
2022-11-27T21:34:50.200Z,91.50
2022-11-27T21:37:17.103Z,91.60
2022-11-27T21:39:44.663Z,91.60
2022-11-27T21:42:11.442Z,91.60
2022-11-27T21:44:41.436Z,91.60
2022-11-27T21:47:12.290Z,91.60
2022-11-27T21:49:43.040Z,91.60
2022-11-27T21:52:09.787Z,91.70
2022-11-27T21:54:36.544Z,91.70
2022-11-27T21:57:06.059Z,91.70
2022-11-27T21:59:35.653Z,91.70
2022-11-27T22:02:05.175Z,91.70
2022-11-27T22:04:31.993Z,91.80
2022-11-27T22:06:58.761Z,91.70
2022-11-27T22:09:25.504Z,91.80
2022-11-27T22:11:52.659Z,91.80
2022-11-27T22:14:19.356Z,91.80
2022-11-27T22:16:46.987Z,91.80
2022-11-27T22:19:14.755Z,91.80
2022-11-27T22:21:41.642Z,91.90
2022-11-27T22:24:13.545Z,91.90
2022-11-27T22:26:43.475Z,91.90
2022-11-27T22:29:10.120Z,91.90
2022-11-27T22:31:36.832Z,91.80
2022-11-27T22:34:03.791Z,91.80
2022-11-27T22:36:34.591Z,91.90
2022-11-27T22:39:04.219Z,91.80
2022-11-27T22:41:35.278Z,91.80
2022-11-27T22:44:24.812Z,91.80
2022-11-27T22:46:51.647Z,91.90
2022-11-27T22:49:18.873Z,91.80
2022-11-27T22:51:46.556Z,91.80
2022-11-27T22:54:16.776Z,91.80
2022-11-27T22:56:45.476Z,91.90
2022-11-27T22:59:31.781Z,91.90
2022-11-27T23:01:59.120Z,91.90
2022-11-27T23:04:25.891Z,91.90
2022-11-27T23:06:52.606Z,91.90
2022-11-27T23:09:19.536Z,91.90
2022-11-27T23:11:46.644Z,91.90
2022-11-27T23:14:13.389Z,91.90
2022-11-27T23:16:40.457Z,91.90
2022-11-27T23:19:07.175Z,91.90
2022-11-27T23:21:37.340Z,91.90
2022-11-27T23:24:05.127Z,91.90
2022-11-27T23:26:32.598Z,91.90
2022-11-27T23:28:59.440Z,91.90
2022-11-27T23:31:30.822Z,91.90
2022-11-27T23:33:59.255Z,91.90
2022-11-27T23:36:25.985Z,92.20
2022-11-27T23:38:52.839Z,91.90
2022-11-27T23:41:24.552Z,91.90
2022-11-27T23:43:52.758Z,91.90
2022-11-27T23:46:21.736Z,92.00
2022-11-27T23:48:48.607Z,92.00
2022-11-27T23:51:30.392Z,92.00
2022-11-27T23:53:57.344Z,92.00
2022-11-27T23:56:29.867Z,92.00
2022-11-27T23:58:57.488Z,92.00
